Nearby METAR Reports

 

KMPO - Mt. Pocono, Pennsylvania, USA
Distance from station: NW 7mi, 12km
Updated: Tue, 19-Jan-2021 10:53pm EST
Few Clouds
Few Clouds
 Wind from W
Wind: W 9 mph , 15 km/h
Temperature: 25°F , -4°C
Wind Chill: 16°F , -9°C
Dew Point: 16°F , -9°C
Humidity: 69%
Barometer: 29.95 inHg , 1014.2 hPa
Clouds: Few Clouds
Visibility: 10 miles , 16 km
Cloud details: Few Clouds 7000 ft
2021/01/20 03:53 KMPO 200353Z AUTO 26008KT 10SM FEW070 M04/M09 A2995 RMK AO2 SLP165 T10391089
K12N - Andover, New Jersey, USA
Distance from station: E 29mi, 47km
Updated: Tue, 19-Jan-2021 10:54pm EST

 Wind from calm
Wind: Calm
Temperature: 28°F , -2°C
Dew Point: 21°F , -6°C
Humidity: 74%
Barometer: 30.03 inHg , 1016.9 hPa
2021/01/20 03:54 K12N 200354Z AUTO 00000KT M02/M06 A3003 RMK AO1 SLP179 T10221061
 
KABE - Allentown, Pennsylvania, USA
Distance from station: SSW 29mi, 47km
Updated: Tue, 19-Jan-2021 10:51pm EST
Clear
Clear
 Wind from SW
Wind: SW 6 mph , 9 km/h
Temperature: 28°F , -2°C
Wind Chill: 21°F , -6°C
Dew Point: 19°F , -7°C
Humidity: 69%
Barometer: 30.05 inHg , 1017.6 hPa
Clouds: Clear
Visibility: 10 miles , 16 km
2021/01/20 03:51 KABE 200351Z 22005KT 10SM CLR M02/M07 A3005 RMK AO2 SLP182 T10221067
KAVP - Avoca/Wilkes B., Pennsylvania, USA
Distance from station: NW 29mi, 47km
Updated: Tue, 19-Jan-2021 10:54pm EST
Overcast
Overcast
 Wind from SSW
Wind: SSW 7 mph , 11 km/h
Temperature: 34°F , 1°C
Wind Chill: 28°F , -2°C
Dew Point: 19°F , -7°C
Humidity: 56%
Barometer: 29.99 inHg , 1015.6 hPa
Clouds: Overcast
Visibility: 10 miles , 16 km
Cloud details: Overcast 7500 ft
2021/01/20 03:54 KAVP 200354Z 21006KT 10SM OVC075 01/M07 A2999 RMK AO2 SLP163 T00111072
 
KFWN - Sussex, New Jersey, USA
Distance from station: ENE 35mi, 57km
Updated: Tue, 19-Jan-2021 10:53pm EST
Clear
Clear
 Wind from SW
Wind: SW 3 mph , 6 km/h
Temperature: 30°F , -1°C
Dew Point: 21°F , -6°C
Humidity: 69%
Barometer: 30.02 inHg , 1016.6 hPa
Clouds: Clear
Visibility: 10 miles , 16 km
2021/01/20 03:53 KFWN 200353Z AUTO 23003KT 10SM CLR M01/M06 A3002 RMK AO2 SLP169 T10111061
KXLL - Allentown Queen, Pennsylvania, USA
Distance from station: SSW 35mi, 57km
Updated: Tue, 19-Jan-2021 10:55pm EST
Clear
Clear
 Wind from SW
Wind: SW 3 mph , 6 km/h
Temperature: 30°F , -1°C
Dew Point: 21°F , -6°C
Humidity: 69%
Barometer: 30.07 inHg , 1018.3 hPa
Clouds: Clear
Visibility: 10 miles , 16 km
2021/01/20 03:55 KXLL 200355Z AUTO 22003KT 10SM CLR M01/M06 A3007 RMK AO2
 
KUKT - Quakertown Arp, Pennsylvania, USA
Distance from station: S 43mi, 70km
Updated: Tue, 19-Jan-2021 10:55pm EST
Clear
Clear
 Wind from calm
Wind: Calm
Temperature: 25°F , -4°C
Dew Point: 21°F , -6°C
Humidity: 86%
Barometer: 30.06 inHg , 1017.9 hPa
Clouds: Clear
Visibility: 10 miles , 16 km
2021/01/20 03:55 KUKT 200355Z AUTO 00000KT 10SM CLR M04/M06 A3006 RMK A01
KSMQ - Somerville, New Jersey, USA
Distance from station: SE 44mi, 71km
Updated: Tue, 19-Jan-2021 10:53pm EST
Clear
Clear
 Wind from calm
Wind: Calm
Temperature: 23°F , -5°C
Dew Point: 19°F , -7°C
Humidity: 86%
Barometer: 30.05 inHg , 1017.6 hPa
Clouds: Clear
Visibility: 9 miles , 14 km
2021/01/20 03:53 KSMQ 200353Z AUTO 00000KT 9SM CLR M05/M07 A3005 RMK AO2 SLP179 I1000 T10501067
 
KMMU - Morristown Muni, New Jersey, USA
Distance from station: ESE 49mi, 79km
Updated: Tue, 19-Jan-2021 10:53pm EST
Clear
Clear
 Wind from calm
Wind: Calm
Temperature: 25°F , -4°C
Dew Point: 23°F , -5°C
Humidity: 93%
Barometer: 30.05 inHg , 1017.6 hPa
Clouds: Clear
Visibility: 10 miles , 16 km
2021/01/20 03:53 KMMU 200353Z AUTO 00000KT 10SM CLR M04/M05 A3005 RMK AO2